Terminal Aerodrome Forecast
Issued by NWS

Home | Current Version | Previous Version | Text Only | Print | Product List | Glossary On
Versions: 1 2 3 4 5 6 7 8 9 10 11 12 13 14 15 16 17 18
000
FTUS44 KSJT 261149
TAFJCT
TAF
KJCT 261149Z 2612/2712 15007KT P6SM VCSH OVC015
      TEMPO 2612/2615 5SM -SHRA OVC035
     FM261500 13008KT P6SM VCSH OVC025
     FM262000 12008KT 5SM -SHRA VCTS OVC040CB
     FM270200 11006KT P6SM OVC035
     FM270700 12006KT 5SM -RA VCTS OVC025CB=

USA.gov is the U.S. government's official web portal to all federal, state and local government web resources and services.